< < Back
Terminal Aerodrome Forecast


Current Version              Previous Versions:   1  2  3  4  5  6  7  8  9  

Terminal Aerodrome Forecast

385
FTUS42 KMLB 300257 AAA
TAFMCO
TAF AMD
KMCO 300257Z 3003/3024 29005KT P6SM FEW010 SCT250
     FM300600 25003KT P6SM SCT005 SCT100 SCT250
     FM301400 21008KT P6SM VCSH SCT020 SCT050 BKN250
     FM301800 24008KT P6SM VCTS SCT040CB BKN100 BKN250
      TEMPO 3019/3021 3SM TSRA BKN035CB=



Latest METAR

219
SAUS70 KWBC 301000 RRG
MTRMCO
METAR KMCO 300953Z 16004KT 8SM FEW007 BKN170 BKN250 24/24 A2997 RMK
SLP147 T02390239


USA.gov is the U.S. government's official web portal to all federal, state and local government web resources and services.